Time;durP1;ratioP1;P1;durP2;ratioP2;P2;SDS_P1;SDS_P2;PMS_P1;PMS_P2;Temp;Humidity;BMP_temperature;BMP_pressure;BME280_temperature;BME280_humidity;BME280_pressure;Samples;Min_cycle;Max_cycle;Signal;HPM_P1;HPM_P2
2021/12/14 00:01:41;;;;;;;23.22;16.97;;;;;;;-0.32;100.00;99960.91;1829932;76;20968;-67
2021/12/14 00:04:19;;;;;;;24.35;16.93;;;;;;;-0.33;100.00;99963.23;1848425;77;20996;-67
2021/12/14 00:06:49;;;;;;;23.40;17.23;;;;;;;-0.33;100.00;99956.63;1830088;76;20959;-66
2021/12/14 00:17:09;;;;;;;27.30;19.73;;;;;;;-0.39;100.00;99968.70;1827217;78;21092;-66
2021/12/14 00:19:36;;;;;;;27.13;17.98;;;;;;;-0.39;100.00;99975.30;1822634;78;20958;-66
2021/12/14 00:22:20;;;;;;;26.57;18.32;;;;;;;-0.40;100.00;99971.00;1820503;77;21035;-65
2021/12/14 00:24:34;;;;;;;28.50;18.85;;;;;;;-0.39;100.00;99977.94;1815427;78;21009;-67
2021/12/14 00:27:06;;;;;;;26.20;18.15;;;;;;;-0.40;100.00;99977.59;1820507;78;21025;-65
2021/12/14 00:29:43;;;;;;;29.02;19.85;;;;;;;-0.39;100.00;99973.98;1824147;78;21184;-66
2021/12/14 00:32:18;;;;;;;;;;;;;;;-0.41;100.00;99976.47;1829778;77;20955;-65
2021/12/14 00:34:48;;;;;;;31.40;18.57;;;;;;;-0.41;100.00;99975.97;1827178;78;20076;-66
2021/12/14 00:37:22;;;;;;;29.72;18.95;;;;;;;-0.41;100.00;99975.97;1825831;78;20965;-65
2021/12/14 00:39:50;;;;;;;25.95;17.48;;;;;;;-0.39;100.00;99976.62;1821798;78;20899;-66
2021/12/14 00:42:18;;;;;;;30.23;18.10;;;;;;;-0.40;100.00;99982.05;1820472;78;21123;-65
2021/12/14 00:44:46;;;;;;;29.75;19.05;;;;;;;-0.40;100.00;99984.69;1820987;78;20970;-66
2021/12/14 00:47:12;;;;;;;30.82;19.07;;;;;;;-0.39;100.00;99987.64;1820882;78;20848;-65
2021/12/14 00:49:39;;;;;;;27.52;18.48;;;;;;;-0.41;100.00;99983.88;1799164;78;21007;-65
2021/12/14 00:52:21;;;;;;;28.87;18.40;;;;;;;-0.41;100.00;99985.20;1818377;77;20869;-66
2021/12/14 00:54:49;;;;;;;26.65;17.20;;;;;;;-0.42;100.00;99981.40;1803053;78;21470;-63
2021/12/14 00:57:17;;;;;;;27.62;18.70;;;;;;;-0.45;100.00;99985.20;1793953;79;20928;-65
2021/12/14 00:59:45;;;;;;;21.73;15.63;;;;;;;-0.47;100.00;99988.50;1823661;78;21005;-63
2021/12/14 01:02:19;;;;;;;28.92;18.92;;;;;;;-0.46;100.00;99986.20;1827082;78;21529;-63
2021/12/14 01:04:53;;;;;;;25.62;17.42;;;;;;;-0.49;100.00;99987.38;1827492;78;20900;-64
2021/12/14 01:07:23;;;;;;;29.95;18.55;;;;;;;-0.50;100.00;99989.67;1827049;78;22038;-62
2021/12/14 01:09:52;;;;;;;26.27;16.67;;;;;;;-0.49;100.00;99985.20;1821394;78;20963;-66
2021/12/14 01:12:32;;;;;;;30.08;18.55;;;;;;;-0.52;100.00;99986.88;1820312;78;21014;-66
2021/12/14 01:15:12;;;;;;;33.42;20.00;;;;;;;-0.55;100.00;99990.68;1818563;78;21496;-64
2021/12/14 01:17:41;;;;;;;27.17;19.70;;;;;;;-0.54;100.00;99988.38;1815003;78;20841;-66
2021/12/14 01:19:59;;;;;;;30.75;19.90;;;;;;;-0.52;100.00;99989.52;1815964;78;21133;-64
2021/12/14 01:25:13;;;;;;;30.97;19.80;;;;;;;-0.52;100.00;99982.92;1818513;78;20951;-65
2021/12/14 01:27:54;;;;;;;29.67;19.32;;;;;;;-0.53;100.00;99986.06;1819929;78;21493;-65
2021/12/14 01:30:36;;;;;;;27.17;18.42;;;;;;;-0.57;100.00;99983.43;1819878;78;20991;-65
2021/12/14 01:33:07;;;;;;;28.17;17.92;;;;;;;-0.59;100.00;99980.64;1821175;77;21196;-66
2021/12/14 01:35:39;;;;;;;25.72;18.05;;;;;;;-0.61;100.00;99981.30;1826688;78;20913;-65
2021/12/14 01:39:10;;;;;;;26.85;17.32;;;;;;;-0.61;100.00;99982.62;1825929;78;20971;-66
2021/12/14 01:41:12;;;;;;;27.95;18.10;;;;;;;-0.62;100.00;99976.53;1816347;77;20988;-66
2021/12/14 01:43:14;;;;;;;30.43;18.85;;;;;;;-0.60;100.00;99984.28;1816380;78;20955;-66
2021/12/14 01:45:42;;;;;;;27.75;17.75;;;;;;;-0.58;100.00;99982.30;1826592;77;21215;-66
2021/12/14 01:48:08;;;;;;;28.90;19.07;;;;;;;-0.58;100.00;99987.08;1825761;78;21447;-66
2021/12/14 01:50:51;;;;;;;31.33;20.67;;;;;;;-0.56;100.00;99986.41;1815545;78;20904;-66
2021/12/14 01:53:23;;;;;;;32.13;20.60;;;;;;;-0.57;100.00;99984.75;1817891;78;21508;-67
2021/12/14 01:55:54;;;;;;;27.77;17.85;;;;;;;-0.56;100.00;99985.59;1819786;78;20998;-67
2021/12/14 01:58:26;;;;;;;30.62;20.10;;;;;;;-0.54;100.00;99983.58;1818204;77;21053;-67
2021/12/14 02:01:04;;;;;;;28.92;19.80;;;;;;;-0.54;100.00;99988.38;1791615;78;20996;-68
2021/12/14 02:03:39;;;;;;;35.70;21.65;;;;;;;-0.52;100.00;99992.15;1823629;78;21464;-66
2021/12/14 02:06:07;;;;;;;31.87;22.25;;;;;;;-0.52;100.00;99993.47;1823747;78;21396;-67
2021/12/14 02:08:36;;;;;;;30.45;19.65;;;;;;;-0.54;100.00;99992.34;1806349;78;21477;-67
2021/12/14 02:11:05;;;;;;;30.70;20.08;;;;;;;-0.57;100.00;99990.02;1826810;78;21130;-67
2021/12/14 02:13:40;;;;;;;29.32;19.48;;;;;;;-0.57;100.00;99991.84;1826369;78;20932;-66
2021/12/14 02:16:10;;;;;;;31.07;19.35;;;;;;;-0.55;100.00;99993.31;1826967;78;21396;-66
2021/12/14 02:18:37;;;;;;;29.90;18.90;;;;;;;-0.54;100.00;99988.38;1822820;78;20920;-67
2021/12/14 02:21:08;;;;;;;34.58;20.90;;;;;;;-0.51;100.00;99993.81;1820005;77;20864;-67
2021/12/14 02:23:40;;;;;;;33.88;19.90;;;;;;;-0.52;100.00;99990.83;1786900;78;21140;-68
2021/12/14 02:26:10;;;;;;;33.48;21.50;;;;;;;-0.54;100.00;99994.13;1819988;77;20915;-67
2021/12/14 02:28:37;;;;;;;31.25;18.62;;;;;;;-0.56;100.00;99998.28;1819742;78;20880;-66
2021/12/14 02:31:07;;;;;;;32.23;20.68;;;;;;;-0.56;100.00;99995.64;1819657;77;21466;-67
2021/12/14 02:33:37;;;;;;;37.45;23.47;;;;;;;-0.57;100.00;100003.70;1823689;78;20877;-67
2021/12/14 02:36:09;;;;;;;32.00;19.98;;;;;;;-0.57;100.00;100002.39;1826495;78;21865;-67
2021/12/14 02:38:45;;;;;;;37.15;21.85;;;;;;;-0.59;100.00;100001.73;1826341;77;20917;-67
2021/12/14 02:41:13;;;;;;;31.68;20.12;;;;;;;-0.58;100.00;100006.03;1826440;78;20908;-65
2021/12/14 02:43:55;;;;;;;41.80;23.92;;;;;;;-0.61;100.00;99999.28;1826630;78;20988;-67
2021/12/14 02:46:34;;;;;;;33.15;21.45;;;;;;;-0.60;100.00;100008.02;1826161;78;20905;-67
2021/12/14 02:49:08;;;;;;;33.70;22.52;;;;;;;-0.63;100.00;100008.36;1819764;78;22190;-67
2021/12/14 02:51:43;;;;;;;38.08;20.85;;;;;;;-0.61;100.00;100010.30;1819218;78;20979;-66
2021/12/14 02:54:18;;;;;;;31.35;20.40;;;;;;;-0.62;100.00;100002.90;1819574;78;21006;-67
2021/12/14 02:56:49;;;;;;;37.55;21.97;;;;;;;-0.62;100.00;100006.03;1819649;78;21409;-67
2021/12/14 02:59:21;;;;;;;34.48;22.25;;;;;;;-0.63;100.00;100004.41;1820061;78;21580;-67
2021/12/14 03:01:50;;;;;;;36.35;23.35;;;;;;;-0.63;100.00;100009.68;1820314;78;21143;-67
2021/12/14 03:04:17;;;;;;;30.60;19.95;;;;;;;-0.65;100.00;100008.52;1826687;78;20953;-67
2021/12/14 03:06:50;;;;;;;;;;;;;;;-0.63;100.00;100008.36;1829219;77;20900;-67
2021/12/14 03:09:51;;;;;;;35.43;21.10;;;;;;;-0.60;100.00;100007.52;1816595;77;20419;-67
2021/12/14 03:12:18;;;;;;;38.08;21.75;;;;;;;-0.60;100.00;100007.52;1795466;78;20865;-67
2021/12/14 03:14:51;;;;;;;40.15;23.50;;;;;;;-0.59;100.00;100013.59;1793884;79;20909;-67
2021/12/14 03:17:19;;;;;;;36.90;22.10;;;;;;;-0.60;100.00;100008.83;1804195;78;20966;-67
2021/12/14 03:19:59;;;;;;;37.42;23.35;;;;;;;-0.60;100.00;100009.33;1819729;78;20908;-67
2021/12/14 03:22:41;;;;;;;37.70;22.80;;;;;;;-0.61;100.00;100012.47;1819648;78;20927;-67
2021/12/14 03:25:08;;;;;;;43.85;24.40;;;;;;;-0.61;100.00;100007.20;1818343;78;20824;-66
2021/12/14 03:27:39;;;;;;;40.78;22.35;;;;;;;-0.58;100.00;100015.27;1819765;78;21129;-68
2021/12/14 03:30:22;;;;;;;40.30;22.67;;;;;;;-0.59;100.00;100012.28;1819716;78;20880;-66
2021/12/14 03:32:49;;;;;;;37.25;23.40;;;;;;;-0.60;100.00;100009.33;1820316;77;20904;-65
2021/12/14 03:35:18;;;;;;;43.17;26.10;;;;;;;-0.61;100.00;100009.83;1826485;78;20877;-65
2021/12/14 03:37:45;;;;;;;47.08;27.22;;;;;;;-0.61;100.00;100008.98;1826241;78;20854;-65
2021/12/14 03:40:14;;;;;;;41.73;24.47;;;;;;;-0.63;100.00;100006.54;1826349;78;20948;-66
2021/12/14 03:42:44;;;;;;;38.13;23.47;;;;;;;-0.62;100.00;100012.12;1826734;78;20940;-66
2021/12/14 03:45:17;;;;;;;42.83;23.87;;;;;;;-0.63;100.00;100009.17;1826174;78;21457;-65
2021/12/14 03:47:53;;;;;;;37.45;22.75;;;;;;;-0.64;100.00;100011.47;1823322;78;20826;-66
2021/12/14 03:50:32;;;;;;;35.73;20.70;;;;;;;-0.65;100.00;100017.24;1822507;78;20899;-66
2021/12/14 03:53:00;;;;;;;33.85;22.48;;;;;;;-0.63;100.00;100014.95;1819778;78;21955;-66
2021/12/14 03:55:39;;;;;;;37.90;22.20;;;;;;;-0.63;100.00;100014.95;1819891;78;21457;-66
2021/12/14 03:58:11;;;;;;;;;;;;;;;-0.66;100.00;100012.97;1822267;78;21409;-65
2021/12/14 04:00:49;;;;;;;32.83;19.40;;;;;;;-0.65;100.00;100009.84;1788495;77;20208;-65
2021/12/14 04:03:16;;;;;;;37.77;23.53;;;;;;;-0.64;100.00;100012.78;1750756;81;20967;-66
2021/12/14 04:05:45;;;;;;;36.88;23.15;;;;;;;-0.63;100.00;100015.77;1748950;82;21159;-66
2021/12/14 04:08:15;;;;;;;47.10;22.98;;;;;;;-0.60;100.00;100011.47;1750492;82;21505;-65
2021/12/14 04:10:44;;;;;;;43.40;24.35;;;;;;;-0.59;100.00;100012.28;1750370;82;21590;-66
2021/12/14 04:13:22;;;;;;;36.10;22.55;;;;;;;-0.61;100.00;100014.26;1771382;80;20979;-64
2021/12/14 04:15:49;;;;;;;33.50;20.93;;;;;;;-0.63;100.00;100009.17;1769621;80;21050;-65
2021/12/14 04:18:19;;;;;;;37.75;21.60;;;;;;;-0.60;100.00;100014.10;1752037;80;21806;-65
2021/12/14 04:20:46;;;;;;;;;;;;;;;-0.58;100.00;100013.44;1763653;80;21457;-65
2021/12/14 04:23:18;;;;;;;36.98;21.60;;;;;;;-0.58;100.00;100016.58;1775651;80;20097;-66
2021/12/14 04:25:46;;;;;;;38.35;22.73;;;;;;;-0.58;100.00;100016.58;1775490;80;20969;-66
2021/12/14 04:28:16;;;;;;;38.42;24.37;;;;;;;-0.59;100.00;100019.69;1760879;80;25672;-64
2021/12/14 04:30:44;;;;;;;39.50;21.97;;;;;;;-0.59;100.00;100017.55;1756206;81;21137;-64
2021/12/14 04:33:16;;;;;;;61.60;36.35;;;;;;;-0.59;100.00;100019.69;1755353;81;20979;-66
2021/12/14 04:35:45;;;;;;;39.03;24.47;;;;;;;-0.59;100.00;100019.69;1755982;81;21513;-66
2021/12/14 04:38:23;;;;;;;49.93;27.60;;;;;;;-0.57;100.00;100022.98;1730776;81;20876;-65
2021/12/14 04:51:58;;;;;;;41.55;23.77;;;;;;;-0.58;100.00;100037.67;1761517;81;21529;-66
2021/12/14 04:54:40;;;;;;;38.98;23.00;;;;;;;-0.60;100.00;100040.47;1761195;80;21034;-67
2021/12/14 04:57:16;;;;;;;36.58;21.65;;;;;;;-0.58;100.00;100040.31;1762410;80;21129;-66
2021/12/14 04:59:44;;;;;;;43.70;23.92;;;;;;;-0.59;100.00;100039.47;1761156;81;20991;-66
2021/12/14 05:02:17;;;;;;;37.75;21.95;;;;;;;-0.59;100.00;100026.78;1768804;80;21500;-67
2021/12/14 05:04:45;;;;;;;30.55;19.55;;;;;;;-0.60;100.00;100036.52;1773765;80;21035;-66
2021/12/14 05:10:05;;;;;;;;;;;;;;;-0.60;100.00;100033.06;1832696;77;22359;-66
2021/12/14 05:12:34;;;;;;;25.95;17.20;;;;;;;-0.62;100.00;100032.41;1824563;78;20092;-67
2021/12/14 05:15:09;;;;;;;28.47;17.65;;;;;;;-0.65;100.00;100035.70;1812558;78;20880;-66
2021/12/14 05:17:39;;;;;;;26.93;16.75;;;;;;;-0.65;100.00;100037.52;1819919;78;20863;-66
2021/12/14 05:20:09;;;;;;;30.02;17.80;;;;;;;-0.62;100.00;100037.67;1818805;77;20995;-66
2021/12/14 05:22:41;;;;;;;26.80;16.27;;;;;;;-0.61;100.00;100036.20;1810023;78;21132;-67
2021/12/14 05:25:13;;;;;;;23.90;16.65;;;;;;;-0.59;100.00;100039.97;1793294;79;20888;-66
2021/12/14 05:27:48;;;;;;;21.25;14.78;;;;;;;-0.60;100.00;100038.34;1789400;80;21006;-66
2021/12/14 05:30:24;;;;;;;23.90;15.93;;;;;;;-0.59;100.00;100038.14;1762131;78;21023;-66
2021/12/14 05:33:20;;;;;;;23.92;16.15;;;;;;;-0.58;100.00;100039.81;1744213;81;21029;-67
2021/12/14 05:35:50;;;;;;;28.62;17.05;;;;;;;-0.58;100.00;100044.27;1743883;81;21143;-66
2021/12/14 05:38:27;;;;;;;25.05;17.48;;;;;;;-0.57;100.00;100051.98;1743006;81;21508;-66
2021/12/14 05:43:23;;;;;;;23.35;17.52;;;;;;;-0.57;100.00;100052.48;1685871;81;20939;-67
2021/12/14 05:45:56;;;;;;;19.00;13.43;;;;;;;-0.58;100.00;100052.17;1740702;81;21625;-65
2021/12/14 05:48:28;;;;;;;20.08;15.68;;;;;;;-0.57;100.00;100056.45;1749672;81;21143;-65
2021/12/14 05:51:00;;;;;;;22.13;16.30;;;;;;;-0.60;100.00;100054.16;1750658;81;21061;-66
2021/12/14 05:53:41;;;;;;;26.97;17.07;;;;;;;-0.58;100.00;100060.91;1746243;81;20975;-66
2021/12/14 05:56:16;;;;;;;24.12;16.95;;;;;;;-0.57;100.00;100065.17;1674406;84;21716;-67
2021/12/14 05:58:46;;;;;;;21.00;15.08;;;;;;;-0.58;100.00;100068.81;1697517;84;20982;-65
2021/12/14 06:01:17;;;;;;;26.48;16.62;;;;;;;-0.58;100.00;100064.04;1719503;81;21143;-65
2021/12/14 06:03:54;;;;;;;27.25;18.92;;;;;;;-0.58;100.00;100068.00;1728272;81;20962;-67
2021/12/14 06:06:31;;;;;;;31.33;21.12;;;;;;;-0.56;100.00;100064.20;1728527;78;21023;-65
2021/12/14 06:09:18;;;;;;;31.02;21.10;;;;;;;-0.57;100.00;100065.17;1827411;78;21476;-68
2021/12/14 06:11:56;;;;;;;25.17;17.77;;;;;;;-0.54;100.00;100065.33;1828029;77;21043;-67
2021/12/14 06:14:29;;;;;;;31.42;20.75;;;;;;;-0.55;100.00;100063.70;1827718;77;21152;-67
2021/12/14 06:17:03;;;;;;;29.72;18.75;;;;;;;-0.55;100.00;100066.34;1825759;77;20942;-65
2021/12/14 06:19:36;;;;;;;29.63;18.07;;;;;;;-0.55;100.00;100074.25;1831574;76;21018;-66
2021/12/14 06:22:12;;;;;;;31.02;16.77;;;;;;;-0.54;100.00;100069.28;1802835;78;21620;-66
2021/12/14 06:24:43;;;;;;;29.75;18.73;;;;;;;-0.52;100.00;100063.35;1813155;77;21649;-67
2021/12/14 06:27:14;;;;;;;30.72;20.65;;;;;;;-0.50;100.00;100070.60;1836228;77;21119;-66
2021/12/14 06:29:49;;;;;;;30.10;18.55;;;;;;;-0.50;100.00;100066.64;1836787;77;20951;-68
2021/12/14 06:32:26;;;;;;;27.55;18.40;;;;;;;-0.51;100.00;100071.61;1818254;78;20928;-66
2021/12/14 06:34:57;;;;;;;45.50;26.10;;;;;;;-0.52;100.00;100074.72;1819709;77;20979;-66
2021/12/14 06:40:37;;;;;;;;;;;;;;;-0.48;100.00;100077.85;1803794;78;21240;-68
2021/12/14 06:43:18;;;;;;;33.23;17.02;;;;;;;-0.43;100.00;100075.53;1819820;78;20135;-66
2021/12/14 06:45:55;;;;;;;27.42;19.35;;;;;;;-0.44;100.00;100081.81;1820649;77;21051;-65
2021/12/14 06:48:38;;;;;;;25.88;19.77;;;;;;;-0.45;100.00;100074.87;1819434;78;21082;-65
2021/12/14 06:51:21;;;;;;;34.38;21.30;;;;;;;-0.45;100.00;100078.83;1811980;78;21114;-67
2021/12/14 06:53:57;;;;;;;27.05;16.00;;;;;;;-0.44;100.00;100078.67;1815664;78;21527;-65
2021/12/14 06:56:52;;;;;;;27.85;18.65;;;;;;;-0.43;100.00;100078.17;1795990;78;21419;-65
2021/12/14 06:59:26;;;;;;;27.20;17.67;;;;;;;-0.40;100.00;100078.32;1822694;77;20967;-64
2021/12/14 07:02:13;;;;;;;22.45;15.10;;;;;;;-0.41;100.00;100078.83;1823376;78;20937;-65
2021/12/14 07:04:48;;;;;;;23.70;16.20;;;;;;;-0.41;100.00;100089.38;1811611;78;21002;-68
2021/12/14 07:07:57;;;;;;;21.68;15.58;;;;;;;-0.40;100.00;100087.05;1833924;77;21861;-67
2021/12/14 07:10:39;;;;;;;25.23;17.30;;;;;;;-0.39;100.00;100093.14;1827954;78;20878;-65
2021/12/14 07:13:19;;;;;;;37.05;21.57;;;;;;;-0.35;100.00;100093.14;1824596;77;20933;-67
2021/12/14 07:15:51;;;;;;;64.15;36.53;;;;;;;-0.36;100.00;100098.10;1827768;77;21007;-64
2021/12/14 07:18:19;;;;;;;147.68;62.98;;;;;;;-0.38;100.00;100102.72;1829147;78;21440;-66
2021/12/14 07:20:49;;;;;;;170.43;81.08;;;;;;;-0.36;100.00;100099.42;1822884;77;21113;-65
2021/12/14 07:23:32;;;;;;;76.92;43.48;;;;;;;-0.35;100.00;100096.59;1832308;77;21003;-67
2021/12/14 07:26:09;;;;;;;125.50;71.02;;;;;;;-0.36;100.00;100100.23;1823992;77;20992;-67
2021/12/14 07:28:42;;;;;;;53.45;33.20;;;;;;;-0.32;100.00;100097.59;1827741;78;20957;-66
2021/12/14 07:31:16;;;;;;;64.20;40.55;;;;;;;-0.27;100.00;100102.34;1824410;78;23035;-67
2021/12/14 07:33:47;;;;;;;74.75;48.17;;;;;;;-0.22;100.00;100104.81;1827222;77;21139;-66
2021/12/14 07:36:29;;;;;;;61.45;36.20;;;;;;;-0.19;100.00;100105.47;1828835;77;21447;-65
2021/12/14 07:39:03;;;;;;;56.92;32.00;;;;;;;-0.16;100.00;100105.13;1828659;77;20924;-64
2021/12/14 07:41:36;;;;;;;45.40;26.52;;;;;;;-0.15;100.00;100108.08;1812444;78;20979;-67
2021/12/14 07:44:18;;;;;;;50.73;26.20;;;;;;;-0.13;100.00;100102.95;1829076;77;21031;-65
2021/12/14 07:47:15;;;;;;;32.15;19.52;;;;;;;-0.10;100.00;100105.75;1822880;78;21157;-65
2021/12/14 07:49:54;;;;;;;36.70;23.30;;;;;;;-0.09;100.00;100100.81;1826580;77;21020;-66
2021/12/14 07:52:21;;;;;;;36.98;21.48;;;;;;;-0.02;100.00;100101.78;1828611;77;20932;-66
2021/12/14 07:54:55;;;;;;;34.20;20.12;;;;;;;-0.02;100.00;100097.31;1827381;78;20908;-69
2021/12/14 07:57:31;;;;;;;29.40;17.12;;;;;;;-0.01;100.00;100097.63;1825181;78;20909;-65
2021/12/14 08:00:02;;;;;;;28.12;17.30;;;;;;;0.02;100.00;100103.06;1828975;78;21123;-67
2021/12/14 08:02:43;;;;;;;33.20;19.67;;;;;;;0.00;100.00;100105.08;1820436;77;21553;-67
2021/12/14 08:05:28;;;;;;;;;;;;;;;-0.04;100.00;100108.53;1831037;78;20948;-69
2021/12/14 08:08:10;;;;;;;30.57;18.62;;;;;;;-0.07;100.00;100115.98;1822487;77;20429;-68
2021/12/14 08:10:44;;;;;;;26.25;17.67;;;;;;;-0.09;100.00;100110.05;1825267;77;21517;-67
2021/12/14 08:13:22;;;;;;;27.37;15.88;;;;;;;-0.10;100.00;100114.98;1847869;77;21235;-67
2021/12/14 08:15:56;;;;;;;31.25;18.92;;;;;;;-0.11;100.00;100112.84;1828416;77;20960;-64
2021/12/14 08:18:35;;;;;;;31.75;18.98;;;;;;;-0.16;100.00;100111.22;1813876;77;20911;-65
2021/12/14 08:21:10;;;;;;;78.72;42.10;;;;;;;-0.14;100.00;100111.06;1799373;77;21510;-64
2021/12/14 08:23:45;;;;;;;67.37;34.27;;;;;;;-0.13;100.00;100108.23;1825161;77;21040;-67
2021/12/14 08:26:20;;;;;;;72.25;35.75;;;;;;;-0.15;100.00;100114.17;1821580;78;21134;-69
2021/12/14 08:28:58;;;;;;;63.42;31.45;;;;;;;-0.15;100.00;100111.53;1815292;78;20895;-68
2021/12/14 08:31:45;;;;;;;53.68;29.57;;;;;;;-0.15;100.00;100108.89;1824754;77;21465;-69
2021/12/14 08:34:29;;;;;;;38.55;22.13;;;;;;;-0.16;100.00;100105.94;1790740;78;20974;-66
2021/12/14 08:41:00;;;;;;;35.90;22.32;;;;;;;-0.14;100.00;100099.19;1829039;77;20970;-69
2021/12/14 08:43:32;;;;;;;39.45;21.23;;;;;;;-0.23;100.00;100100.52;1814508;77;20962;-68
2021/12/14 08:46:04;;;;;;;32.25;20.65;;;;;;;-0.24;100.00;100098.06;1808234;79;20983;-68
2021/12/14 08:48:38;;;;;;;36.95;21.30;;;;;;;-0.24;100.00;100100.70;1808467;78;21047;-67
2021/12/14 08:51:16;;;;;;;32.65;19.27;;;;;;;-0.21;100.00;100099.03;1827882;78;21012;-67
2021/12/14 08:53:59;;;;;;;;;;;;;;;-0.21;100.00;100100.36;1809576;78;21122;-67
2021/12/14 08:56:30;;;;;;;29.23;17.52;;;;;;;-0.21;100.00;100101.67;1790242;80;20158;-67
2021/12/14 08:58:57;;;;;;;28.95;18.35;;;;;;;-0.24;100.00;100105.48;1757991;81;20980;-68
2021/12/14 09:01:27;;;;;;;26.37;16.75;;;;;;;-0.23;100.00;100103.16;1770027;81;20990;-66
2021/12/14 09:04:02;;;;;;;27.20;18.35;;;;;;;-0.22;100.00;100101.36;1741764;81;21031;-68
2021/12/14 09:06:35;;;;;;;25.57;15.28;;;;;;;-0.20;100.00;100098.53;1724505;81;21071;-67
2021/12/14 09:09:06;;;;;;;26.85;15.80;;;;;;;-0.18;100.00;100101.33;1769922;81;20921;-69
2021/12/14 09:11:35;;;;;;;28.25;17.95;;;;;;;-0.14;100.00;100097.86;1770087;80;21040;-68
2021/12/14 09:14:05;;;;;;;25.92;16.52;;;;;;;-0.11;100.00;100100.97;1740866;79;21104;-65
2021/12/14 09:16:32;;;;;;;89.52;51.13;;;;;;;-0.07;100.00;100094.87;1801308;79;21005;-66
2021/12/14 09:19:06;;;;;;;38.33;23.73;;;;;;;-0.11;100.00;100091.73;1784184;80;21150;-66
2021/12/14 09:21:38;;;;;;;78.22;44.03;;;;;;;-0.11;100.00;100088.28;1776627;80;20948;-67
2021/12/14 09:24:12;;;;;;;50.88;34.75;;;;;;;-0.14;100.00;100084.67;1759125;79;21314;-66
2021/12/14 09:26:41;;;;;;;56.02;37.90;;;;;;;-0.15;100.00;100090.92;1728820;81;21011;-66
2021/12/14 09:29:11;;;;;;;34.65;21.23;;;;;;;-0.10;100.00;100094.72;1780336;80;20976;-63
2021/12/14 09:31:39;;;;;;;38.65;24.60;;;;;;;-0.12;100.00;100099.34;1773634;80;21128;-67
2021/12/14 09:34:09;;;;;;;33.42;20.70;;;;;;;-0.12;100.00;100095.38;1774246;80;21015;-67
2021/12/14 09:36:36;;;;;;;23.67;16.57;;;;;;;-0.10;100.00;100092.55;1783406;80;21593;-65
2021/12/14 09:39:10;;;;;;;24.37;15.48;;;;;;;-0.07;100.00;100090.41;1785113;79;21645;-67
2021/12/14 09:41:39;;;;;;;31.20;21.77;;;;;;;-0.05;100.00;100088.42;1775707;80;20927;-67
2021/12/14 09:44:09;;;;;;;31.60;20.27;;;;;;;0.02;100.00;100089.05;1784548;79;21126;-67
2021/12/14 09:46:37;;;;;;;29.10;20.20;;;;;;;0.05;100.00;100085.58;1749114;79;20890;-66
2021/12/14 09:49:07;;;;;;;24.95;16.40;;;;;;;0.05;100.00;100083.41;1742118;82;20933;-67
2021/12/14 09:51:42;;;;;;;26.27;17.20;;;;;;;-0.01;100.00;100077.83;1741751;82;20946;-67
2021/12/14 09:54:12;;;;;;;21.70;16.55;;;;;;;-0.01;100.00;100079.66;1768657;79;21084;-66
2021/12/14 09:56:43;;;;;;;23.15;14.83;;;;;;;-0.02;100.00;100084.63;1791357;79;22059;-68
2021/12/14 09:59:10;;;;;;;28.60;17.75;;;;;;;0.00;100.00;100083.95;1769147;79;21062;-68
2021/12/14 10:01:45;;;;;;;31.02;17.87;;;;;;;-0.07;100.00;100083.00;1755273;81;21497;-68
2021/12/14 10:04:17;;;;;;;26.17;16.12;;;;;;;-0.07;100.00;100090.41;1758856;79;20964;-67
2021/12/14 10:06:44;;;;;;;25.20;16.62;;;;;;;-0.08;100.00;100091.39;1790334;79;21075;-66
2021/12/14 10:09:19;;;;;;;30.35;18.92;;;;;;;-0.08;100.00;100090.57;1773917;80;21082;-68
2021/12/14 10:14:27;;;;;;;34.98;21.20;;;;;;;-0.17;100.00;100087.16;1769593;80;21499;-67
2021/12/14 10:16:54;;;;;;;29.87;19.12;;;;;;;-0.16;100.00;100080.06;1770471;80;21095;-65
2021/12/14 10:19:25;;;;;;;33.90;21.27;;;;;;;-0.18;100.00;100078.90;1778212;80;21051;-67
2021/12/14 10:21:57;;;;;;;32.28;20.88;;;;;;;-0.19;100.00;100083.86;1777828;80;21197;-67
2021/12/14 10:24:24;;;;;;;44.10;25.95;;;;;;;-0.17;100.00;100084.99;1776593;80;20927;-68
2021/12/14 10:27:03;;;;;;;59.15;33.02;;;;;;;-0.13;100.00;100079.70;1656501;78;21033;-67
2021/12/14 10:29:31;;;;;;;44.00;26.95;;;;;;;-0.11;100.00;100082.50;1659829;86;21120;-67
2021/12/14 10:32:08;;;;;;;51.42;29.15;;;;;;;-0.08;100.00;100076.88;1658384;85;21131;-66
2021/12/14 10:34:46;;;;;;;36.50;23.07;;;;;;;-0.06;100.00;100075.39;1657793;86;21122;-67
2021/12/14 10:37:21;;;;;;;23.60;17.95;;;;;;;-0.05;100.00;100079.19;1657764;86;20937;-66
2021/12/14 10:45:07;;;;;;;25.20;15.80;;;;;;;-0.05;100.00;100079.66;1660097;86;21111;-67
2021/12/14 10:47:34;;;;;;;28.02;19.87;;;;;;;-0.09;100.00;100075.23;1657693;85;21164;-65
2021/12/14 10:50:08;;;;;;;33.20;21.33;;;;;;;-0.12;100.00;100067.67;1657945;86;21063;-67
2021/12/14 10:52:40;;;;;;;41.00;26.55;;;;;;;-0.09;100.00;100066.51;1705860;83;21068;-68
2021/12/14 10:55:21;;;;;;;39.48;25.70;;;;;;;-0.11;100.00;100064.53;1686496;83;21107;-66
2021/12/14 10:57:52;;;;;;;41.63;27.95;;;;;;;-0.13;100.00;100053.32;1684980;85;21043;-66
2021/12/14 11:00:33;;;;;;;34.45;20.12;;;;;;;-0.19;100.00;100052.20;1686304;83;21139;-67
2021/12/14 11:03:08;;;;;;;21.73;16.80;;;;;;;-0.20;100.00;100052.36;1686238;85;21073;-68
2021/12/14 11:05:39;;;;;;;32.83;20.35;;;;;;;-0.21;100.00;100051.55;1668303;83;21493;-66
2021/12/14 11:08:20;;;;;;;;;;;;;;;-0.20;100.00;100049.72;1662571;83;21374;-67
2021/12/14 11:10:58;;;;;;;20.05;14.30;;;;;;;-0.17;100.00;100056.81;1656088;86;20213;-65
2021/12/14 11:13:43;;;;;;;23.55;16.20;;;;;;;-0.16;100.00;100053.17;1656907;86;21113;-64
2021/12/14 11:16:17;;;;;;;28.10;18.98;;;;;;;-0.12;100.00;100050.52;1678996;83;21526;-64
2021/12/14 11:18:41;;;;;;;25.97;17.35;;;;;;;-0.10;100.00;100054.29;1677094;83;21576;-66
2021/12/14 11:21:12;;;;;;;54.23;36.83;;;;;;;-0.08;100.00;100051.80;1670037;84;26776;-66
2021/12/14 11:23:43;;;;;;;37.40;25.72;;;;;;;-0.05;100.00;100054.59;1676007;83;21107;-65
2021/12/14 11:26:22;;;;;;;33.92;21.23;;;;;;;-0.07;100.00;100051.33;1698670;83;21117;-66
2021/12/14 11:28:57;;;;;;;34.78;19.60;;;;;;;-0.08;100.00;100045.20;1719499;83;21530;-66
2021/12/14 11:31:38;;;;;;;19.40;13.48;;;;;;;-0.10;100.00;100049.02;1715859;82;21471;-64
2021/12/14 11:34:15;;;;;;;18.30;12.07;;;;;;;-0.18;100.00;100053.02;1619279;87;21019;-65
2021/12/14 11:36:56;;;;;;;20.85;14.15;;;;;;;-0.19;100.00;100053.52;1664320;84;21529;-64
2021/12/14 11:39:31;;;;;;;17.65;11.70;;;;;;;-0.19;100.00;100052.20;1644871;86;21237;-67
2021/12/14 11:42:03;;;;;;;17.57;11.65;;;;;;;-0.20;100.00;100057.64;1670760;85;21011;-67
2021/12/14 11:45:04;;;;;;;18.90;13.55;;;;;;;-0.21;100.00;100048.91;1672930;85;21031;-66
2021/12/14 11:47:43;;;;;;;21.42;14.83;;;;;;;-0.25;100.00;100049.73;1684458;84;21084;-67
2021/12/14 11:50:38;;;;;;;18.42;12.78;;;;;;;-0.21;100.00;100050.22;1679443;84;20985;-65
2021/12/14 11:53:13;;;;;;;19.05;14.40;;;;;;;-0.17;100.00;100048.90;1687496;84;21203;-65
2021/12/14 11:56:17;;;;;;;15.15;12.00;;;;;;;-0.13;100.00;100043.58;1687675;85;20989;-66
2021/12/14 11:58:56;;;;;;;16.97;11.70;;;;;;;-0.09;100.00;100039.61;1612477;87;21030;-66
2021/12/14 12:01:39;;;;;;;19.20;13.10;;;;;;;-0.06;100.00;100038.45;1612676;89;21095;-67
2021/12/14 12:04:23;;;;;;;20.25;13.78;;;;;;;-0.04;100.00;100039.10;1612093;89;21092;-66
2021/12/14 12:09:35;;;;;;;13.13;11.03;;;;;;;-0.02;100.00;100039.75;1608379;88;21149;-66
2021/12/14 12:12:08;;;;;;;14.03;11.30;;;;;;;-0.05;100.00;100042.72;1641468;87;21058;-67
2021/12/14 12:14:50;;;;;;;18.07;13.08;;;;;;;-0.03;100.00;100036.77;1618531;87;21180;-69
2021/12/14 12:17:42;;;;;;;17.15;13.13;;;;;;;-0.02;100.00;100045.03;1642002;87;21579;-66
2021/12/14 12:20:30;;;;;;;20.85;14.23;;;;;;;-0.01;100.00;100043.52;1614183;88;21183;-66
2021/12/14 12:23:04;;;;;;;32.53;20.25;;;;;;;0.01;100.00;100038.59;1615447;88;21101;-69